Impacts TAF Board INFO
FOR SITUATIONAL AWARENESS. NOT TO BE USED FOR FLIGHT PLANNING PURPOSES.
IDs:

KPDX - Portland Intl Arpt, OR, US

Issued at 1730 UTC 23 Jun 2018
Updated at 1933 UTC 23 Jun 2018
Potential Impact None Slight Moderate High
Time1853Z 23/20Z 23/21Z 23/22Z 23/23Z 24/00Z 24/01Z 24/02Z 24/03Z 24/04Z 24/05Z 24/06Z 24/07Z 24/08Z>>
Type OBS PRVL PRVL PRVL PRVL PRVL PRVL PRVL PRVL PRVL PRVL PRVL PRVL PRVL
VIS 10 >6 >6 >6 >6 >6 >6 >6 >6 >6 >6 >6 >6 >6
CIG 49 40 40 -- -- -- -- -- -- -- -- -- -- --
Cover BKN BKN BKN SCT SCT SCT SCT SCT SCT SCT SCT SCT SCT SKC
FltCat VFR VFR VFR VFR VFR VFR VFR VFR VFR VFR VFR VFR VFR VFR
WX -- -- -- -- -- -- -- -- -- -- -- -- -- --
WDir 330 330 330 330 330 330 330 330 330 330 330 330 330 330
WSpd 5 5 5 8 8 8 8 8 8 8 8 8 8 3
WGst -- -- -- -- -- -- -- -- -- -- -- -- -- --

Raw TAF
KPDX 231730Z 2318/2418 31004KT P6SM SCT025 BKN035
  FM232000 33005KT P6SM BKN040
  FM232200 33008KT P6SM SCT045
  FM240800 33003KT P6SM SKC


Raw METAR
KPDX 231853Z 33005KT 10SM SCT031 BKN049 20/11 A3017 RMK AO2 SLP217 T02000106
KPDX 231753Z VRB03KT 10SM SCT030 BKN047 19/11 A3018 RMK AO2 SLP218 60000 T01890111 10194 20150 53000
KPDX 231653Z 32003KT 10SM SCT025 BKN030 BKN044 18/11 A3018 RMK AO2 SLP217 T01780111

METAR Board
Radar Display
Forecast Discussion

FOR SITUATIONAL AWARENESS. NOT TO BE USED FOR FLIGHT PLANNING PURPOSES.